Time;durP1;ratioP1;P1;durP2;ratioP2;P2;SDS_P1;SDS_P2;PMS_P1;PMS_P2;Temp;Humidity;BMP_temperature;BMP_pressure;BME280_temperature;BME280_humidity;BME280_pressure;Samples;Min_cycle;Max_cycle;Signal;HPM_P1;HPM_P2
2024/01/19 00:02:24;;;;;;;6.50;3.20;;;;;;;;;;5061918;28;20797;-78
2024/01/19 00:04:54;;;;;;;6.53;3.80;;;;;;;;;;5063196;28;20531;-78
2024/01/19 00:07:21;;;;;;;6.20;4.20;;;;;;;;;;5063233;28;20555;-79
2024/01/19 00:09:47;;;;;;;5.93;3.50;;;;;;;;;;5063164;28;20509;-79
2024/01/19 00:12:14;;;;;;;5.23;3.87;;;;;;;;;;5063372;28;20444;-78
2024/01/19 00:14:40;;;;;;;5.73;3.10;;;;;;;;;;5061762;28;20595;-78
2024/01/19 00:17:07;;;;;;;9.97;3.03;;;;;;;;;;5063324;28;20899;-78
2024/01/19 00:19:32;;;;;;;6.53;3.13;;;;;;;;;;5063092;28;20527;-78
2024/01/19 00:22:00;;;;;;;6.00;3.43;;;;;;;;;;5063520;28;20495;-78
2024/01/19 00:24:27;;;;;;;6.63;3.50;;;;;;;;;;5062310;28;20568;-79
2024/01/19 00:26:54;;;;;;;11.10;3.37;;;;;;;;;;5062461;28;20535;-79
2024/01/19 00:29:20;;;;;;;4.43;3.20;;;;;;;;;;5061929;28;20466;-78
2024/01/19 00:31:48;;;;;;;14.07;3.60;;;;;;;;;;5061297;28;20492;-78
2024/01/19 00:34:14;;;;;;;7.03;3.60;;;;;;;;;;5063193;28;20534;-78
2024/01/19 00:36:41;;;;;;;4.30;3.60;;;;;;;;;;5059963;28;20838;-78
2024/01/19 00:39:09;;;;;;;8.20;3.13;;;;;;;;;;5061027;28;20459;-80
2024/01/19 00:41:35;;;;;;;2.70;2.50;;;;;;;;;;5061707;28;20467;-80
2024/01/19 00:44:05;;;;;;;2.50;2.30;;;;;;;;;;5061928;28;20516;-78
2024/01/19 00:46:31;;;;;;;4.70;2.50;;;;;;;;;;5061619;28;20502;-79
2024/01/19 00:48:58;;;;;;;7.50;2.30;;;;;;;;;;5062092;28;20884;-78
2024/01/19 00:51:24;;;;;;;3.13;2.37;;;;;;;;;;5060496;28;20502;-78
2024/01/19 00:53:51;;;;;;;6.53;2.80;;;;;;;;;;5061385;28;20942;-78
2024/01/19 00:56:19;;;;;;;3.00;2.10;;;;;;;;;;5061386;28;20560;-78
2024/01/19 00:58:48;;;;;;;4.33;2.90;;;;;;;;;;5061700;28;20522;-78
2024/01/19 01:01:14;;;;;;;7.20;2.87;;;;;;;;;;5061605;28;20487;-78
2024/01/19 01:03:43;;;;;;;4.17;2.37;;;;;;;;;;5061333;28;20499;-78
2024/01/19 01:06:09;;;;;;;5.00;2.53;;;;;;;;;;5060612;28;20525;-78
2024/01/19 01:08:36;;;;;;;3.90;2.23;;;;;;;;;;5060680;28;20493;-78
2024/01/19 01:11:04;;;;;;;6.63;2.40;;;;;;;;;;5059833;28;20563;-78
2024/01/19 01:13:31;;;;;;;4.07;2.53;;;;;;;;;;5060558;28;20845;-78
2024/01/19 01:15:58;;;;;;;2.93;2.33;;;;;;;;;;5059814;28;20885;-78
2024/01/19 01:18:25;;;;;;;2.10;1.63;;;;;;;;;;5060112;28;20523;-78
2024/01/19 01:20:51;;;;;;;2.40;2.20;;;;;;;;;;5059456;28;20467;-78
2024/01/19 01:23:18;;;;;;;9.40;2.30;;;;;;;;;;5042263;28;20539;-78
2024/01/19 01:25:45;;;;;;;4.80;2.63;;;;;;;;;;5059409;28;20504;-78
2024/01/19 01:28:11;;;;;;;3.93;1.93;;;;;;;;;;5059645;28;20479;-78
2024/01/19 01:30:41;;;;;;;2.30;1.70;;;;;;;;;;5059642;28;20543;-78
2024/01/19 01:33:07;;;;;;;22.23;2.80;;;;;;;;;;5060632;28;20537;-78
2024/01/19 01:35:35;;;;;;;2.13;1.97;;;;;;;;;;5058965;28;20554;-78
2024/01/19 01:38:02;;;;;;;3.93;1.63;;;;;;;;;;5059560;28;20447;-78
2024/01/19 01:40:28;;;;;;;4.80;2.03;;;;;;;;;;5059651;28;20547;-78
2024/01/19 01:42:57;;;;;;;4.77;2.00;;;;;;;;;;5059042;28;20998;-78
2024/01/19 01:45:23;;;;;;;5.20;1.37;;;;;;;;;;5059876;28;20324;-79
2024/01/19 01:47:51;;;;;;;10.40;1.80;;;;;;;;;;5060675;28;20590;-79
2024/01/19 01:50:18;;;;;;;4.40;2.13;;;;;;;;;;5060319;28;20551;-78
2024/01/19 01:52:44;;;;;;;6.17;2.20;;;;;;;;;;5059968;28;20548;-78
2024/01/19 01:55:11;;;;;;;3.70;1.50;;;;;;;;;;5059825;28;20543;-79
2024/01/19 01:57:38;;;;;;;4.70;2.30;;;;;;;;;;5061202;28;20436;-78
2024/01/19 02:00:06;;;;;;;4.20;2.40;;;;;;;;;;5060117;28;20471;-78
2024/01/19 02:02:32;;;;;;;5.27;2.13;;;;;;;;;;5060621;28;20448;-78
2024/01/19 02:05:02;;;;;;;2.10;1.83;;;;;;;;;;5059948;28;20526;-79
2024/01/19 02:07:28;;;;;;;5.87;2.20;;;;;;;;;;5058880;28;21099;-81
2024/01/19 02:09:55;;;;;;;5.63;2.47;;;;;;;;;;5058314;28;20938;-79
2024/01/19 02:12:22;;;;;;;3.43;1.93;;;;;;;;;;5058688;28;20444;-80
2024/01/19 02:14:49;;;;;;;2.83;2.17;;;;;;;;;;5058333;28;20531;-80
2024/01/19 02:17:15;;;;;;;3.53;2.53;;;;;;;;;;5058862;28;20531;-79
2024/01/19 02:19:43;;;;;;;2.60;2.03;;;;;;;;;;5058180;28;20474;-79
2024/01/19 02:22:11;;;;;;;5.67;3.00;;;;;;;;;;5060184;28;20540;-79
2024/01/19 02:24:39;;;;;;;3.50;2.47;;;;;;;;;;5059855;28;20552;-79
2024/01/19 02:27:06;;;;;;;2.60;1.90;;;;;;;;;;5059864;28;20578;-79
2024/01/19 02:29:32;;;;;;;2.00;1.57;;;;;;;;;;5059920;28;20562;-79
2024/01/19 02:31:59;;;;;;;3.07;2.00;;;;;;;;;;5059454;28;20552;-79
2024/01/19 02:34:25;;;;;;;5.50;2.57;;;;;;;;;;5059392;28;20546;-79
2024/01/19 02:36:52;;;;;;;9.23;2.10;;;;;;;;;;5058853;28;20567;-79
2024/01/19 02:39:19;;;;;;;3.37;2.40;;;;;;;;;;5058419;28;20536;-79
2024/01/19 02:41:47;;;;;;;2.70;2.00;;;;;;;;;;5058958;28;20467;-79
2024/01/19 02:44:13;;;;;;;4.90;2.00;;;;;;;;;;5058190;28;20443;-80
2024/01/19 02:46:40;;;;;;;5.93;2.13;;;;;;;;;;5057869;28;20498;-79
2024/01/19 02:49:06;;;;;;;3.63;2.53;;;;;;;;;;5058334;28;20519;-80
2024/01/19 02:51:33;;;;;;;6.23;2.23;;;;;;;;;;5059001;28;20524;-79
2024/01/19 02:53:59;;;;;;;5.53;2.03;;;;;;;;;;5057309;28;20534;-79
2024/01/19 02:56:26;;;;;;;3.63;2.20;;;;;;;;;;5058047;28;20562;-80
2024/01/19 02:58:54;;;;;;;7.40;2.03;;;;;;;;;;5058551;28;20452;-80
2024/01/19 03:01:21;;;;;;;9.37;2.20;;;;;;;;;;5055526;28;20456;-79
2024/01/19 03:03:47;;;;;;;10.10;2.63;;;;;;;;;;5058400;28;20534;-80
2024/01/19 03:06:14;;;;;;;4.63;2.13;;;;;;;;;;5057942;28;20541;-79
2024/01/19 03:08:41;;;;;;;3.53;2.17;;;;;;;;;;5058360;28;20942;-80
2024/01/19 03:11:07;;;;;;;4.97;1.77;;;;;;;;;;5058367;28;20555;-79
2024/01/19 03:13:34;;;;;;;4.80;2.00;;;;;;;;;;5059302;28;20531;-79
2024/01/19 03:16:04;;;;;;;6.47;2.13;;;;;;;;;;5057553;28;20494;-79
2024/01/19 03:18:30;;;;;;;7.67;1.87;;;;;;;;;;5056986;28;20448;-79
2024/01/19 03:20:57;;;;;;;7.93;1.90;;;;;;;;;;5057786;28;20535;-80
2024/01/19 03:23:24;;;;;;;7.40;1.80;;;;;;;;;;5057736;28;20508;-80
2024/01/19 03:25:51;;;;;;;4.30;2.17;;;;;;;;;;5057342;28;20492;-80
2024/01/19 03:28:17;;;;;;;2.07;1.87;;;;;;;;;;5056384;28;20563;-80
2024/01/19 03:30:44;;;;;;;5.13;1.87;;;;;;;;;;5056675;28;20499;-80
2024/01/19 03:33:12;;;;;;;2.00;1.90;;;;;;;;;;5057190;28;20474;-80
2024/01/19 03:35:39;;;;;;;6.73;1.60;;;;;;;;;;5056018;28;20550;-80
2024/01/19 03:38:06;;;;;;;3.90;2.53;;;;;;;;;;5056440;28;20450;-80
2024/01/19 03:40:33;;;;;;;4.97;1.97;;;;;;;;;;5054494;28;20470;-79
2024/01/19 03:43:01;;;;;;;1.30;1.20;;;;;;;;;;5056589;28;20474;-80
2024/01/19 03:45:27;;;;;;;3.10;1.20;;;;;;;;;;5055706;28;20530;-79
2024/01/19 03:47:54;;;;;;;4.30;1.43;;;;;;;;;;5056493;28;20484;-79
2024/01/19 03:50:22;;;;;;;4.53;1.40;;;;;;;;;;5056675;28;20466;-80
2024/01/19 03:52:49;;;;;;;3.60;1.23;;;;;;;;;;5056736;28;20963;-79
2024/01/19 03:55:16;;;;;;;1.60;1.50;;;;;;;;;;5056595;28;21069;-79
2024/01/19 03:57:42;;;;;;;3.00;1.43;;;;;;;;;;5056384;28;20543;-79
2024/01/19 04:00:10;;;;;;;1.13;1.03;;;;;;;;;;5055956;28;20523;-79
2024/01/19 04:02:36;;;;;;;2.13;1.10;;;;;;;;;;5055945;28;20938;-79
2024/01/19 04:05:03;;;;;;;4.37;1.20;;;;;;;;;;5058628;28;20591;-79
2024/01/19 04:07:31;;;;;;;2.03;1.23;;;;;;;;;;5061589;28;20535;-79
2024/01/19 04:09:57;;;;;;;2.10;1.20;;;;;;;;;;5059949;28;20459;-79
2024/01/19 04:12:24;;;;;;;1.20;1.10;;;;;;;;;;5061058;28;20446;-79
2024/01/19 04:14:50;;;;;;;3.67;1.67;;;;;;;;;;5059889;28;20470;-79
2024/01/19 04:17:17;;;;;;;1.63;1.07;;;;;;;;;;5059717;28;20530;-79
2024/01/19 04:19:44;;;;;;;2.00;1.50;;;;;;;;;;5060150;28;20515;-80
2024/01/19 04:22:10;;;;;;;7.43;1.50;;;;;;;;;;5061436;28;20992;-79
2024/01/19 04:24:38;;;;;;;3.27;1.60;;;;;;;;;;5060095;28;21020;-79
2024/01/19 04:27:05;;;;;;;2.40;1.50;;;;;;;;;;5060560;28;20538;-80
2024/01/19 04:29:32;;;;;;;2.80;1.77;;;;;;;;;;5059898;28;20484;-79
2024/01/19 04:31:58;;;;;;;2.33;1.43;;;;;;;;;;5058343;28;20459;-79
2024/01/19 04:34:25;;;;;;;6.63;1.47;;;;;;;;;;5060433;28;20546;-80
2024/01/19 04:36:54;;;;;;;1.53;1.43;;;;;;;;;;5059384;28;21096;-79
2024/01/19 04:39:21;;;;;;;1.53;1.33;;;;;;;;;;5059917;28;20436;-80
2024/01/19 04:41:49;;;;;;;2.50;1.23;;;;;;;;;;5059650;28;20471;-80
2024/01/19 04:44:15;;;;;;;3.30;1.43;;;;;;;;;;5059983;28;20475;-79
2024/01/19 04:46:42;;;;;;;3.00;1.33;;;;;;;;;;5060084;28;20543;-78
2024/01/19 04:49:09;;;;;;;1.53;1.30;;;;;;;;;;5060402;28;20571;-78
2024/01/19 04:51:35;;;;;;;2.57;1.70;;;;;;;;;;5058392;28;20498;-78
2024/01/19 04:54:02;;;;;;;2.30;1.40;;;;;;;;;;5060710;28;20526;-80
2024/01/19 04:56:28;;;;;;;3.40;1.80;;;;;;;;;;5060566;28;20468;-79
2024/01/19 04:58:56;;;;;;;1.90;1.50;;;;;;;;;;5060224;28;20524;-79
2024/01/19 05:01:23;;;;;;;4.77;1.67;;;;;;;;;;5058796;28;20468;-79
2024/01/19 05:03:49;;;;;;;1.83;1.60;;;;;;;;;;5058872;28;20972;-80
2024/01/19 05:06:17;;;;;;;1.70;1.60;;;;;;;;;;5059369;28;20554;-79
2024/01/19 05:08:43;;;;;;;4.83;2.30;;;;;;;;;;5059624;28;20490;-80
2024/01/19 05:11:13;;;;;;;2.77;1.90;;;;;;;;;;5058769;28;20464;-80
2024/01/19 05:13:40;;;;;;;3.03;1.83;;;;;;;;;;5060179;28;20928;-80
2024/01/19 05:16:08;;;;;;;5.17;2.13;;;;;;;;;;5057133;28;20547;-80
2024/01/19 05:18:37;;;;;;;5.77;2.30;;;;;;;;;;5059620;28;20518;-79
2024/01/19 05:21:03;;;;;;;4.13;2.53;;;;;;;;;;5059173;28;20471;-80
2024/01/19 05:23:30;;;;;;;5.23;2.60;;;;;;;;;;5059386;28;20524;-80
2024/01/19 05:25:57;;;;;;;3.33;2.23;;;;;;;;;;5058247;28;20493;-80
2024/01/19 05:28:23;;;;;;;14.43;3.27;;;;;;;;;;5058638;28;20492;-80
2024/01/19 05:30:50;;;;;;;5.70;2.97;;;;;;;;;;5058259;28;20460;-80
2024/01/19 05:33:17;;;;;;;2.90;2.60;;;;;;;;;;5058858;28;20458;-80
2024/01/19 05:35:44;;;;;;;12.93;3.20;;;;;;;;;;5058752;28;20559;-79
2024/01/19 05:38:10;;;;;;;4.17;2.87;;;;;;;;;;5058322;28;20444;-80
2024/01/19 05:40:37;;;;;;;2.37;2.20;;;;;;;;;;5058488;28;20555;-80
2024/01/19 05:43:04;;;;;;;5.17;3.37;;;;;;;;;;5058264;28;20891;-79
2024/01/19 05:45:30;;;;;;;9.20;2.83;;;;;;;;;;5057514;28;20907;-79
2024/01/19 05:47:57;;;;;;;3.73;2.60;;;;;;;;;;5058906;28;20523;-80
2024/01/19 05:50:25;;;;;;;13.43;2.70;;;;;;;;;;5056583;28;20588;-78
2024/01/19 05:52:51;;;;;;;4.77;2.87;;;;;;;;;;5058501;28;21001;-79
2024/01/19 05:55:18;;;;;;;3.27;2.67;;;;;;;;;;5057847;28;20543;-78
2024/01/19 05:57:44;;;;;;;10.80;3.03;;;;;;;;;;5061111;28;20451;-78
2024/01/19 06:00:13;;;;;;;3.03;2.60;;;;;;;;;;5058286;28;20886;-78
2024/01/19 06:02:39;;;;;;;3.03;2.57;;;;;;;;;;5060827;28;20888;-78
2024/01/19 06:05:06;;;;;;;3.07;2.77;;;;;;;;;;5060556;28;20539;-78
2024/01/19 06:07:34;;;;;;;4.13;3.13;;;;;;;;;;5059823;28;20519;-79
2024/01/19 06:10:01;;;;;;;5.10;3.43;;;;;;;;;;5059309;28;20581;-78
2024/01/19 06:12:27;;;;;;;3.47;2.90;;;;;;;;;;5061018;28;20511;-78
2024/01/19 06:14:54;;;;;;;5.63;2.93;;;;;;;;;;5060689;28;20460;-78
2024/01/19 06:17:21;;;;;;;9.97;3.47;;;;;;;;;;5058591;28;20500;-78
2024/01/19 06:19:47;;;;;;;6.70;3.57;;;;;;;;;;5059251;28;20539;-79
2024/01/19 06:22:14;;;;;;;5.77;3.33;;;;;;;;;;5058352;28;20783;-80
2024/01/19 06:24:42;;;;;;;2.93;2.70;;;;;;;;;;5058469;28;20506;-78
2024/01/19 06:27:08;;;;;;;4.50;3.00;;;;;;;;;;5058597;28;20551;-80
2024/01/19 06:29:34;;;;;;;3.47;3.17;;;;;;;;;;5059083;28;20576;-78
2024/01/19 06:32:02;;;;;;;4.20;2.90;;;;;;;;;;5058239;28;20543;-80
2024/01/19 06:34:29;;;;;;;3.73;3.33;;;;;;;;;;5056902;28;20535;-78
2024/01/19 06:36:58;;;;;;;4.37;3.30;;;;;;;;;;5059195;28;20537;-81
2024/01/19 06:39:24;;;;;;;6.40;3.50;;;;;;;;;;5060107;28;20527;-79
2024/01/19 06:41:54;;;;;;;5.77;3.77;;;;;;;;;;5057470;28;20467;-81
2024/01/19 06:44:20;;;;;;;3.60;3.30;;;;;;;;;;5058939;28;20518;-79
2024/01/19 06:46:47;;;;;;;8.13;3.50;;;;;;;;;;5057582;28;20474;-79
2024/01/19 06:49:17;;;;;;;6.30;3.60;;;;;;;;;;5057603;28;20479;-78
2024/01/19 06:51:43;;;;;;;6.80;3.87;;;;;;;;;;5058571;28;20570;-79
2024/01/19 06:54:10;;;;;;;5.10;3.97;;;;;;;;;;5058733;28;20598;-79
2024/01/19 06:56:36;;;;;;;9.07;3.93;;;;;;;;;;5059116;28;21020;-78
2024/01/19 06:59:04;;;;;;;11.03;3.73;;;;;;;;;;5060396;28;20503;-78
2024/01/19 07:01:33;;;;;;;7.60;4.03;;;;;;;;;;5058032;28;20517;-78
2024/01/19 07:04:00;;;;;;;6.00;3.40;;;;;;;;;;5059291;28;20443;-79
2024/01/19 07:06:27;;;;;;;5.17;3.47;;;;;;;;;;5058303;28;20558;-78
2024/01/19 07:08:53;;;;;;;4.07;3.67;;;;;;;;;;5058163;28;20533;-79
2024/01/19 07:11:20;;;;;;;10.00;3.33;;;;;;;;;;5054984;28;20574;-79
2024/01/19 07:13:47;;;;;;;14.80;4.60;;;;;;;;;;5057886;28;20483;-79
2024/01/19 07:16:15;;;;;;;8.43;4.00;;;;;;;;;;5056719;28;20514;-79
2024/01/19 07:18:41;;;;;;;5.60;3.87;;;;;;;;;;5055897;28;20526;-78
2024/01/19 07:21:08;;;;;;;10.17;3.67;;;;;;;;;;5056828;28;20467;-78
2024/01/19 07:23:35;;;;;;;4.10;3.13;;;;;;;;;;5057285;28;20534;-78
2024/01/19 07:26:02;;;;;;;11.03;3.87;;;;;;;;;;5055977;28;20558;-78
2024/01/19 07:28:28;;;;;;;4.47;3.50;;;;;;;;;;5056278;28;20535;-78
2024/01/19 07:30:56;;;;;;;9.10;3.80;;;;;;;;;;5056333;28;20474;-78
2024/01/19 07:33:25;;;;;;;6.27;3.30;;;;;;;;;;5057111;28;21005;-79
2024/01/19 07:35:51;;;;;;;4.20;3.40;;;;;;;;;;5057928;28;20475;-78
2024/01/19 07:38:19;;;;;;;8.37;3.03;;;;;;;;;;5056602;28;20550;-78
2024/01/19 07:40:45;;;;;;;6.03;3.33;;;;;;;;;;5064007;28;20507;-78
2024/01/19 07:43:12;;;;;;;6.30;2.87;;;;;;;;;;5064312;28;20913;-78
2024/01/19 07:45:38;;;;;;;9.43;3.53;;;;;;;;;;5064705;28;20538;-78
2024/01/19 07:48:05;;;;;;;6.30;2.90;;;;;;;;;;5061129;28;20879;-79
2024/01/19 07:50:33;;;;;;;4.60;3.00;;;;;;;;;;5054656;28;20475;-79
2024/01/19 07:52:59;;;;;;;8.67;2.80;;;;;;;;;;5054639;28;20440;-80
2024/01/19 07:55:26;;;;;;;3.60;2.33;;;;;;;;;;5053419;28;20999;-79
2024/01/19 07:57:52;;;;;;;5.10;3.00;;;;;;;;;;5054296;28;20507;-79
2024/01/19 08:00:19;;;;;;;6.40;3.17;;;;;;;;;;5054224;28;20491;-80
2024/01/19 08:02:46;;;;;;;6.63;2.70;;;;;;;;;;5057182;28;20442;-81
2024/01/19 08:05:12;;;;;;;6.27;2.33;;;;;;;;;;5057355;28;20491;-80
2024/01/19 08:07:41;;;;;;;9.03;2.90;;;;;;;;;;5053137;28;20507;-80
2024/01/19 08:10:08;;;;;;;6.60;2.53;;;;;;;;;;5054290;28;20494;-79
2024/01/19 08:12:34;;;;;;;6.73;2.10;;;;;;;;;;5054520;28;20528;-81
2024/01/19 08:15:01;;;;;;;4.20;2.77;;;;;;;;;;5053603;28;21022;-80
2024/01/19 08:17:29;;;;;;;4.67;2.30;;;;;;;;;;5053114;28;20446;-81
2024/01/19 08:19:56;;;;;;;12.57;2.20;;;;;;;;;;5053069;28;20869;-80
2024/01/19 08:22:22;;;;;;;9.50;2.77;;;;;;;;;;5053172;28;20438;-80
2024/01/19 08:24:50;;;;;;;2.83;2.33;;;;;;;;;;5052665;28;20547;-80
2024/01/19 08:27:17;;;;;;;6.23;2.43;;;;;;;;;;5050212;28;20454;-81
2024/01/19 08:29:48;;;;;;;4.90;2.33;;;;;;;;;;5052427;28;20486;-80
2024/01/19 08:32:15;;;;;;;15.27;2.90;;;;;;;;;;5054106;28;20910;-81
2024/01/19 08:34:43;;;;;;;4.13;2.40;;;;;;;;;;5055550;28;20551;-81
2024/01/19 08:37:09;;;;;;;5.90;2.87;;;;;;;;;;5053333;28;20463;-80
2024/01/19 08:39:38;;;;;;;4.43;2.50;;;;;;;;;;5054603;28;20443;-79
2024/01/19 08:42:07;;;;;;;8.00;2.43;;;;;;;;;;5053663;28;20482;-80
2024/01/19 08:44:34;;;;;;;4.87;2.10;;;;;;;;;;5053417;28;20468;-79
2024/01/19 08:47:00;;;;;;;5.57;2.10;;;;;;;;;;5053600;28;20497;-80
2024/01/19 08:49:27;;;;;;;2.40;2.00;;;;;;;;;;5052477;28;20486;-80
2024/01/19 08:51:53;;;;;;;2.90;2.50;;;;;;;;;;5051601;28;20933;-80
2024/01/19 08:54:19;;;;;;;9.07;2.90;;;;;;;;;;5053171;28;20460;-82
2024/01/19 08:56:46;;;;;;;5.90;2.87;;;;;;;;;;5053766;28;20956;-81
2024/01/19 08:59:15;;;;;;;6.47;2.63;;;;;;;;;;5053636;28;20512;-80
2024/01/19 09:01:42;;;;;;;11.27;3.23;;;;;;;;;;5052778;28;20444;-79
2024/01/19 09:04:09;;;;;;;10.10;2.83;;;;;;;;;;5053066;28;20466;-80
2024/01/19 09:06:36;;;;;;;5.10;2.63;;;;;;;;;;5054654;28;20436;-82
2024/01/19 09:09:03;;;;;;;5.77;3.00;;;;;;;;;;5054842;28;20450;-81
2024/01/19 09:11:30;;;;;;;8.80;3.93;;;;;;;;;;5051334;28;20436;-80
2024/01/19 09:13:57;;;;;;;3.40;2.27;;;;;;;;;;5053508;28;20443;-80
2024/01/19 09:16:25;;;;;;;13.33;3.40;;;;;;;;;;5056331;28;21133;-81
2024/01/19 09:18:51;;;;;;;7.77;3.10;;;;;;;;;;5054657;28;20436;-80
2024/01/19 09:21:18;;;;;;;4.00;2.80;;;;;;;;;;5053196;28;21108;-80
2024/01/19 09:23:44;;;;;;;6.73;3.40;;;;;;;;;;5053883;28;20440;-80
2024/01/19 09:26:17;;;;;;;4.23;2.83;;;;;;;;;;5053904;28;20519;-80
2024/01/19 09:28:44;;;;;;;8.53;3.13;;;;;;;;;;5053333;28;20953;-80
2024/01/19 09:31:11;;;;;;;5.20;3.27;;;;;;;;;;5052837;28;20480;-79
2024/01/19 09:33:40;;;;;;;4.97;2.37;;;;;;;;;;5051333;28;21032;-82
2024/01/19 09:36:07;;;;;;;4.63;2.50;;;;;;;;;;5053130;28;20464;-81
2024/01/19 09:38:35;;;;;;;5.40;3.53;;;;;;;;;;5053492;28;20523;-80
2024/01/19 09:41:05;;;;;;;7.70;3.07;;;;;;;;;;5053338;28;20449;-82
2024/01/19 09:43:33;;;;;;;7.33;3.50;;;;;;;;;;5054049;28;20467;-80
2024/01/19 09:46:05;;;;;;;7.27;3.47;;;;;;;;;;5054209;28;20535;-79
2024/01/19 09:48:35;;;;;;;7.60;3.30;;;;;;;;;;5051996;28;20424;-80
2024/01/19 09:51:04;;;;;;;6.40;3.47;;;;;;;;;;5053369;28;20482;-79
2024/01/19 09:53:32;;;;;;;6.00;4.00;;;;;;;;;;5056284;28;20642;-81
2024/01/19 09:55:58;;;;;;;12.27;3.20;;;;;;;;;;5055791;28;20521;-80
2024/01/19 09:58:26;;;;;;;13.53;5.30;;;;;;;;;;5054054;28;20531;-80
2024/01/19 10:00:53;;;;;;;3.47;3.13;;;;;;;;;;5052388;28;20435;-79
2024/01/19 10:03:22;;;;;;;4.63;3.50;;;;;;;;;;5052897;28;20539;-80
2024/01/19 10:31:22;;;;;;;8.50;3.67;;;;;;;;;;5056054;27;20588;-81
2024/01/19 10:33:49;;;;;;;5.77;3.40;;;;;;;;;;5043429;28;20507;-82
2024/01/19 10:36:16;;;;;;;8.10;3.37;;;;;;;;;;5044991;28;20511;-79
2024/01/19 10:38:42;;;;;;;8.20;3.23;;;;;;;;;;5051698;28;20812;-80
2024/01/19 10:41:14;;;;;;;4.37;3.27;;;;;;;;;;5064586;28;20435;-79
2024/01/19 10:43:40;;;;;;;7.20;2.80;;;;;;;;;;5069535;28;20523;-79
2024/01/19 10:46:18;;;;;;;4.50;3.23;;;;;;;;;;5069036;28;20470;-78
2024/01/19 10:48:49;;;;;;;6.83;3.43;;;;;;;;;;5063641;28;20511;-78
2024/01/19 10:51:17;;;;;;;5.33;3.20;;;;;;;;;;5067271;28;20459;-79
2024/01/19 10:53:44;;;;;;;6.30;2.90;;;;;;;;;;5067922;28;21153;-79
2024/01/19 10:56:18;;;;;;;12.50;3.40;;;;;;;;;;5068284;28;20475;-79
2024/01/19 10:58:44;;;;;;;12.63;3.60;;;;;;;;;;5070534;28;20459;-80
2024/01/19 11:01:14;;;;;;;8.83;3.03;;;;;;;;;;5062713;28;20530;-77
2024/01/19 11:03:43;;;;;;;8.50;3.07;;;;;;;;;;5072858;28;20470;-78
2024/01/19 11:06:13;;;;;;;7.80;2.93;;;;;;;;;;5068736;28;20506;-79
2024/01/19 11:08:41;;;;;;;5.27;2.80;;;;;;;;;;5066802;28;20544;-79
2024/01/19 11:11:09;;;;;;;6.87;3.03;;;;;;;;;;5067105;28;20561;-79
2024/01/19 11:13:38;;;;;;;5.40;3.50;;;;;;;;;;5071795;28;20520;-77
2024/01/19 11:16:10;;;;;;;11.27;2.70;;;;;;;;;;5070920;28;20471;-78
2024/01/19 11:18:37;;;;;;;7.47;2.57;;;;;;;;;;5068179;28;20502;-78
2024/01/19 11:21:04;;;;;;;14.03;3.17;;;;;;;;;;5066290;28;20485;-78
2024/01/19 11:23:32;;;;;;;8.60;2.43;;;;;;;;;;5066014;28;20485;-78
2024/01/19 11:26:02;;;;;;;6.77;2.67;;;;;;;;;;5066741;28;20463;-79
2024/01/19 11:28:34;;;;;;;11.53;2.43;;;;;;;;;;5065584;28;20599;-78
2024/01/19 11:31:10;;;;;;;10.63;2.90;;;;;;;;;;5080116;28;20997;-78
2024/01/19 11:33:37;;;;;;;16.53;3.67;;;;;;;;;;5052918;28;20459;-79
2024/01/19 11:36:04;;;;;;;4.77;2.67;;;;;;;;;;5049890;28;20558;-78
2024/01/19 11:38:49;;;;;;;10.67;3.83;;;;;;;;;;5052867;28;20467;-81
2024/01/19 11:41:34;;;;;;;4.47;2.43;;;;;;;;;;5053164;28;20896;-81
2024/01/19 11:44:00;;;;;;;9.13;3.13;;;;;;;;;;5054036;28;20446;-79
2024/01/19 11:46:42;;;;;;;11.23;2.20;;;;;;;;;;5051600;28;20575;-79
2024/01/19 11:49:09;;;;;;;7.80;2.30;;;;;;;;;;5052211;28;20435;-78
2024/01/19 11:51:37;;;;;;;7.27;2.10;;;;;;;;;;5050468;28;20469;-79
2024/01/19 11:54:06;;;;;;;7.43;2.57;;;;;;;;;;5050100;28;20453;-80
2024/01/19 11:56:33;;;;;;;12.37;3.03;;;;;;;;;;5052095;28;20506;-79
2024/01/19 11:59:00;;;;;;;5.33;2.13;;;;;;;;;;5052095;28;20950;-78
2024/01/19 12:01:27;;;;;;;10.10;2.33;;;;;;;;;;5050403;28;20521;-79
2024/01/19 12:03:54;;;;;;;9.50;2.80;;;;;;;;;;5050956;28;20443;-79
2024/01/19 12:06:21;;;;;;;6.77;2.20;;;;;;;;;;5051507;28;20464;-78
2024/01/19 12:09:01;;;;;;;4.87;1.97;;;;;;;;;;5050505;28;20466;-79
2024/01/19 12:11:29;;;;;;;10.83;2.33;;;;;;;;;;5050334;28;20497;-80
2024/01/19 12:13:57;;;;;;;15.33;2.70;;;;;;;;;;5050571;28;20436;-80
2024/01/19 12:16:24;;;;;;;13.90;2.70;;;;;;;;;;5051500;28;20513;-79
2024/01/19 12:18:55;;;;;;;9.20;2.73;;;;;;;;;;5051591;28;20514;-79
2024/01/19 12:21:21;;;;;;;8.43;2.63;;;;;;;;;;5050564;28;21003;-80
2024/01/19 12:23:52;;;;;;;4.90;2.50;;;;;;;;;;5051029;28;20452;-80
2024/01/19 12:26:20;;;;;;;12.50;2.57;;;;;;;;;;5050741;28;20605;-80
2024/01/19 12:28:50;;;;;;;6.60;2.17;;;;;;;;;;5049327;28;20464;-79
2024/01/19 12:31:24;;;;;;;6.77;2.40;;;;;;;;;;5051595;28;20548;-80
2024/01/19 12:33:51;;;;;;;8.17;2.47;;;;;;;;;;5051851;28;20448;-78
2024/01/19 12:36:19;;;;;;;13.80;2.60;;;;;;;;;;5049379;28;20915;-79
2024/01/19 12:38:47;;;;;;;10.60;2.70;;;;;;;;;;5054115;28;20527;-81
2024/01/19 12:41:17;;;;;;;9.00;2.60;;;;;;;;;;5052783;28;20480;-79
2024/01/19 12:43:44;;;;;;;5.67;1.80;;;;;;;;;;5053488;28;20574;-80
2024/01/19 12:46:13;;;;;;;10.87;2.50;;;;;;;;;;5047598;28;20519;-79
2024/01/19 12:48:41;;;;;;;8.60;2.50;;;;;;;;;;5053336;28;20439;-78
2024/01/19 12:51:08;;;;;;;10.30;2.20;;;;;;;;;;5049295;28;20480;-80
2024/01/19 12:53:35;;;;;;;8.93;2.33;;;;;;;;;;5052134;28;20483;-81
2024/01/19 12:56:02;;;;;;;3.20;1.80;;;;;;;;;;5049294;28;20544;-83
2024/01/19 12:58:29;;;;;;;9.93;2.03;;;;;;;;;;5048865;28;20496;-82
2024/01/19 13:01:03;;;;;;;4.07;2.37;;;;;;;;;;5048892;28;20484;-81
2024/01/19 13:03:31;;;;;;;2.67;1.80;;;;;;;;;;5050860;28;20459;-80
2024/01/19 13:06:00;;;;;;;5.63;2.20;;;;;;;;;;5050323;28;20470;-78
2024/01/19 13:08:28;;;;;;;7.00;2.50;;;;;;;;;;5057122;28;20554;-81
2024/01/19 13:11:04;;;;;;;5.77;2.43;;;;;;;;;;5048273;28;20455;-80
2024/01/19 13:13:31;;;;;;;9.53;2.40;;;;;;;;;;5054527;28;21030;-78
2024/01/19 13:16:04;;;;;;;7.73;2.73;;;;;;;;;;5047978;28;20460;-79
2024/01/19 13:18:32;;;;;;;7.23;2.00;;;;;;;;;;5046906;28;20562;-81
2024/01/19 13:21:11;;;;;;;8.80;2.47;;;;;;;;;;5046098;28;20514;-80
2024/01/19 13:23:37;;;;;;;9.43;3.40;;;;;;;;;;5050901;28;20461;-81
2024/01/19 13:26:04;;;;;;;9.37;2.33;;;;;;;;;;5048853;28;20484;-81
2024/01/19 13:28:30;;;;;;;9.80;3.00;;;;;;;;;;5048400;28;20546;-78
2024/01/19 13:30:57;;;;;;;6.13;1.77;;;;;;;;;;5049206;28;20641;-79
2024/01/19 13:33:23;;;;;;;9.70;2.20;;;;;;;;;;5048000;28;20472;-80
2024/01/19 13:35:51;;;;;;;8.37;2.90;;;;;;;;;;5050484;28;20460;-80
2024/01/19 13:38:19;;;;;;;9.13;2.40;;;;;;;;;;5047468;28;20482;-80
2024/01/19 13:40:46;;;;;;;10.50;2.70;;;;;;;;;;5044773;28;20558;-78
2024/01/19 13:43:12;;;;;;;10.40;2.87;;;;;;;;;;5045066;28;20471;-80
2024/01/19 13:45:38;;;;;;;10.00;2.80;;;;;;;;;;5046951;28;20462;-80
2024/01/19 13:48:05;;;;;;;7.83;2.50;;;;;;;;;;5039528;28;20467;-79
2024/01/19 13:50:32;;;;;;;10.00;2.50;;;;;;;;;;5047482;28;20428;-80
2024/01/19 13:52:59;;;;;;;6.43;2.10;;;;;;;;;;5045890;28;20468;-81
2024/01/19 13:55:26;;;;;;;7.63;2.53;;;;;;;;;;5051252;28;20499;-79
2024/01/19 13:57:54;;;;;;;6.07;2.43;;;;;;;;;;5047701;28;20703;-81
2024/01/19 14:00:20;;;;;;;4.10;2.17;;;;;;;;;;5049449;28;20486;-78
2024/01/19 14:02:48;;;;;;;5.40;2.30;;;;;;;;;;5050646;28;20464;-77
2024/01/19 14:05:14;;;;;;;6.57;2.57;;;;;;;;;;5048782;28;20465;-80
2024/01/19 14:07:42;;;;;;;12.90;3.10;;;;;;;;;;5048270;28;20551;-81
2024/01/19 14:10:09;;;;;;;9.60;2.73;;;;;;;;;;5049549;28;20451;-80
2024/01/19 14:12:37;;;;;;;6.07;2.57;;;;;;;;;;5045669;28;20480;-79
2024/01/19 14:15:04;;;;;;;7.57;3.07;;;;;;;;;;5045874;28;20482;-80
2024/01/19 14:17:30;;;;;;;11.40;3.90;;;;;;;;;;5045220;28;20472;-79
2024/01/19 14:19:57;;;;;;;7.23;2.80;;;;;;;;;;5047140;28;20444;-80
2024/01/19 14:22:23;;;;;;;10.93;3.40;;;;;;;;;;5047325;28;20464;-80
2024/01/19 14:24:50;;;;;;;11.47;3.23;;;;;;;;;;5048987;28;21009;-80
2024/01/19 14:27:16;;;;;;;13.57;3.50;;;;;;;;;;5047314;28;20547;-77
2024/01/19 14:29:47;;;;;;;4.93;2.50;;;;;;;;;;5046389;28;20893;-79
2024/01/19 14:32:15;;;;;;;8.67;2.87;;;;;;;;;;5045300;28;20526;-77
2024/01/19 14:34:43;;;;;;;7.47;2.73;;;;;;;;;;5047066;28;20467;-77
2024/01/19 14:37:11;;;;;;;4.87;2.53;;;;;;;;;;5054168;28;20468;-78
2024/01/19 14:39:38;;;;;;;9.57;3.33;;;;;;;;;;5053087;28;20472;-79
2024/01/19 14:42:04;;;;;;;4.07;2.90;;;;;;;;;;5050707;28;20468;-77
2024/01/19 14:44:32;;;;;;;9.00;2.97;;;;;;;;;;5049256;28;21126;-77
2024/01/19 14:47:00;;;;;;;8.50;2.50;;;;;;;;;;5050356;28;20471;-77
2024/01/19 14:49:28;;;;;;;7.10;2.33;;;;;;;;;;5053110;28;20439;-78
2024/01/19 14:51:55;;;;;;;3.40;2.23;;;;;;;;;;5050021;28;20529;-81
2024/01/19 14:54:21;;;;;;;8.03;3.17;;;;;;;;;;5048884;28;20891;-79
2024/01/19 14:56:48;;;;;;;9.57;2.77;;;;;;;;;;5050038;28;21131;-77
2024/01/19 14:59:14;;;;;;;5.80;2.50;;;;;;;;;;5046911;28;20542;-77
2024/01/19 15:01:41;;;;;;;2.93;2.43;;;;;;;;;;5043030;28;20808;-77
2024/01/19 15:04:09;;;;;;;3.57;2.40;;;;;;;;;;5045179;28;20538;-78
2024/01/19 15:06:37;;;;;;;8.73;2.13;;;;;;;;;;5051968;28;20469;-78
2024/01/19 15:09:03;;;;;;;14.73;2.60;;;;;;;;;;5050769;28;20473;-78